Dubuque, IA (52001)

7:25 PM CST on December 05, 2016 (GMT -0600)
City Hall Annex | | Change Station

Elev 640 ft 42.51 °N, 90.67 °W | Updated 8 seconds ago

Light Snow
Light Snow Freezing Fog
33.9 °F
Feels Like 28 °F
N
7.0
Wind Variable Wind from ESE
Gusts 7.0 mph

Today
High -- | Low -- °F
--% Chance of Precip.
Yesterday
High -- | Low -- °F
Precip. -- in
Pressure 29.86 in
Visibility 0.5 miles
Clouds
Windchill 28 °F
Dew Point 32 °F
Humidity 93%
Rainfall 0.22 in
Snow Depth Not available.
7:17 AM 4:29 PM
Waxing Crescent, 36% visible
SPECI KDBQ 060120Z 16017KT 1/2SM R36/3000V4500FT -SN FZFG VV002 M01/M01 A2986 RMK AO2 P0000 T10061006
Pressure 29.86 in
Visibility 0.5 miles
Clouds
Windchill 28 °F
Dew Point 32 °F
Humidity 93%
Rainfall 0.22 in
Snow Depth Not available.
7:17 AM 4:29 PM
Waxing Crescent, 36% visible
SPECI KDBQ 060120Z 16017KT 1/2SM R36/3000V4500FT -SN FZFG VV002 M01/M01 A2986 RMK AO2 P0000 T10061006

10-Day Weather Forecast

Almanac

Astronomy

Dec. 05, 2016 Rise Set
Actual Time
Civil Twilight
Nautical Twilight
Astronomical Twilight
Moon
Length of Visible Light
Length of Day
Tomorrow will be .
, % of the Moon is Illuminated

Today's Extremes

State Highs State Lows

Community

WunderPhotos

Upload Photos

1,955,893 photos uploaded!

WunderBlog® & News

Nearby

Air Quality

  Air Quality AQ Index Pollutant
Not available.

Snow Depth

Station Depth Elevation

Earthquake Activity

City Distance Mag. Time & Date
Minimum magnitude displayed is 2.5.

Coastal Water Temperatures

Place Temperature

Stations

Nearby Weather Stations

Station Location Temp. Windchill Dew Point Humidity Wind Precip. Elev Updated Type
                   

Watches & Warnings

There are currently no watches in effect.